Time;durP1;ratioP1;P1;durP2;ratioP2;P2;SDS_P1;SDS_P2;PMS_P1;PMS_P2;Temp;Humidity;BMP_temperature;BMP_pressure;BME280_temperature;BME280_humidity;BME280_pressure;Samples;Min_cycle;Max_cycle;Signal;HPM_P1;HPM_P2
2022/11/12 00:00:33;;;;;;;10.02;7.63;;;6.50;99.90;;;;;;5108592;27;20035;-68
2022/11/12 00:02:58;;;;;;;8.38;7.05;;;6.50;99.90;;;;;;5111360;27;20028;-68
2022/11/12 00:05:25;;;;;;;12.55;8.05;;;6.50;99.90;;;;;;5095107;27;20536;-67
2022/11/12 00:07:50;;;;;;;12.43;8.45;;;6.50;99.90;;;;;;5111999;27;20046;-67
2022/11/12 00:10:16;;;;;;;11.57;7.70;;;6.50;99.90;;;;;;5112296;27;20405;-68
2022/11/12 00:12:43;;;;;;;11.45;7.25;;;6.40;99.90;;;;;;5110005;27;20042;-67
2022/11/12 00:15:09;;;;;;;9.23;7.57;;;6.40;99.90;;;;;;5112457;27;20038;-67
2022/11/12 00:17:34;;;;;;;9.93;7.50;;;6.40;99.90;;;;;;5112031;27;20039;-67
2022/11/12 00:20:00;;;;;;;8.88;7.25;;;6.40;99.90;;;;;;5113556;27;20053;-67
2022/11/12 00:22:26;;;;;;;11.23;7.78;;;6.40;99.90;;;;;;5110262;27;20110;-67
2022/11/12 00:24:52;;;;;;;9.45;7.63;;;6.40;99.90;;;;;;5094962;27;20425;-68
2022/11/12 00:27:17;;;;;;;9.82;7.75;;;6.40;99.90;;;;;;5110456;28;20158;-67
2022/11/12 00:29:43;;;;;;;10.55;8.32;;;6.30;99.90;;;;;;5111558;27;20443;-67
2022/11/12 00:32:09;;;;;;;12.50;8.55;;;6.30;99.90;;;;;;5111312;28;20039;-68
2022/11/12 00:34:34;;;;;;;13.20;9.05;;;6.30;99.90;;;;;;5110728;27;20066;-68
2022/11/12 00:37:00;;;;;;;14.15;8.98;;;6.40;99.90;;;;;;5109914;27;20068;-68
2022/11/12 00:39:27;;;;;;;17.17;9.60;;;6.40;99.90;;;;;;5112119;28;20542;-67
2022/11/12 00:41:53;;;;;;;15.60;9.68;;;6.40;99.90;;;;;;5111642;27;20066;-67
2022/11/12 00:44:18;;;;;;;14.60;9.63;;;6.40;99.90;;;;;;5109942;28;20488;-67
2022/11/12 00:46:44;;;;;;;12.20;9.00;;;6.50;99.90;;;;;;5106308;28;20108;-68
2022/11/12 00:49:10;;;;;;;15.85;9.52;;;6.50;99.90;;;;;;5092143;28;20057;-67
2022/11/12 00:51:36;;;;;;;11.80;9.25;;;6.50;99.90;;;;;;5111096;28;20393;-68
2022/11/12 00:54:02;;;;;;;15.60;9.63;;;6.50;99.90;;;;;;5110207;28;20049;-68
2022/11/12 00:56:27;;;;;;;13.05;9.20;;;6.50;99.90;;;;;;5108758;28;20035;-67
2022/11/12 00:58:53;;;;;;;12.57;9.30;;;6.50;99.90;;;;;;5111260;28;20370;-68
2022/11/12 01:01:19;;;;;;;12.60;7.93;;;6.50;99.90;;;;;;5093294;28;20092;-68
2022/11/12 01:03:44;;;;;;;13.10;9.57;;;6.50;99.90;;;;;;5110879;28;20497;-67
2022/11/12 01:06:16;;;;;;;12.77;9.25;;;6.50;99.90;;;;;;5109130;28;20039;-68
2022/11/12 01:08:43;;;;;;;11.88;9.50;;;6.50;99.90;;;;;;5110543;27;20260;-67
2022/11/12 01:11:28;;;;;;;14.52;9.95;;;6.50;99.90;;;;;;5114375;27;20768;-68
2022/11/12 01:14:05;;;;;;;10.77;8.13;;;6.50;99.90;;;;;;5112464;27;20539;-68
2022/11/12 01:16:35;;;;;;;14.45;10.38;;;6.50;99.90;;;;;;5112848;27;20035;-67
2022/11/12 01:19:04;;;;;;;11.77;9.13;;;6.40;99.90;;;;;;5112832;27;20039;-68
2022/11/12 01:21:31;;;;;;;14.75;10.63;;;6.50;99.90;;;;;;5114525;27;20452;-67
2022/11/12 01:23:58;;;;;;;16.27;10.52;;;6.50;99.90;;;;;;5132290;27;20043;-67
2022/11/12 01:26:27;;;;;;;17.13;10.48;;;6.50;99.90;;;;;;5093848;27;20058;-68
2022/11/12 01:28:53;;;;;;;13.93;10.50;;;6.50;99.90;;;;;;5113134;27;20050;-67
2022/11/12 01:31:23;;;;;;;16.20;10.00;;;6.50;99.90;;;;;;5114489;27;20049;-67
2022/11/12 01:33:56;;;;;;;13.35;10.07;;;6.60;99.90;;;;;;5114449;27;20045;-67
2022/11/12 01:36:23;;;;;;;14.73;10.35;;;6.60;99.90;;;;;;5114810;27;20536;-67
2022/11/12 01:38:50;;;;;;;14.25;10.50;;;6.60;99.90;;;;;;5108967;27;20067;-68
2022/11/12 01:41:24;;;;;;;16.92;11.20;;;6.60;99.90;;;;;;5114656;27;20035;-68
2022/11/12 01:44:07;;;;;;;16.63;10.73;;;6.60;99.90;;;;;;5095080;27;20050;-67
2022/11/12 01:46:35;;;;;;;19.13;11.23;;;6.60;99.90;;;;;;5114902;27;20070;-67
2022/11/12 01:49:04;;;;;;;14.25;10.43;;;6.60;99.90;;;;;;5098473;27;20050;-67
2022/11/12 01:51:37;;;;;;;15.73;11.10;;;6.60;99.90;;;;;;5133593;27;20098;-67
2022/11/12 01:54:07;;;;;;;16.40;10.95;;;6.60;99.90;;;;;;5115470;27;20434;-67
2022/11/12 01:56:33;;;;;;;14.00;9.95;;;6.60;99.90;;;;;;5098747;27;20043;-68
2022/11/12 01:59:11;;;;;;;18.58;11.27;;;6.60;99.90;;;;;;5112360;27;20034;-68
2022/11/12 02:01:37;;;;;;;15.05;10.27;;;6.60;99.90;;;;;;5114121;27;20043;-67
2022/11/12 02:04:03;;;;;;;13.02;10.23;;;6.50;99.90;;;;;;5111830;27;20866;-68
2022/11/12 02:06:30;;;;;;;14.75;10.25;;;6.50;99.90;;;;;;5107970;27;20047;-67
2022/11/12 02:08:56;;;;;;;16.02;10.73;;;6.50;99.90;;;;;;5113359;27;20047;-67
2022/11/12 02:11:22;;;;;;;13.00;10.07;;;6.60;99.90;;;;;;5115096;27;20102;-67
2022/11/12 02:13:57;;;;;;;15.82;11.02;;;6.50;99.90;;;;;;5111888;27;20842;-67
2022/11/12 02:16:33;;;;;;;17.73;10.90;;;6.50;99.90;;;;;;5110437;27;20374;-68
2022/11/12 02:18:59;;;;;;;15.13;10.70;;;6.50;99.90;;;;;;5112380;27;20138;-67
2022/11/12 02:21:26;;;;;;;14.07;10.75;;;6.50;99.90;;;;;;5113477;27;20039;-67
2022/11/12 02:24:02;;;;;;;20.67;12.00;;;6.50;99.90;;;;;;5107320;27;20538;-68
2022/11/12 02:26:33;;;;;;;15.70;11.05;;;6.50;99.90;;;;;;5110219;27;20126;-67
2022/11/12 02:28:59;;;;;;;15.57;10.68;;;6.50;99.90;;;;;;5116246;27;20114;-68
2022/11/12 02:31:24;;;;;;;15.73;10.52;;;6.50;99.90;;;;;;5113404;27;20466;-68
2022/11/12 02:33:50;;;;;;;15.57;9.95;;;6.50;99.90;;;;;;5095583;27;20132;-68
2022/11/12 02:36:16;;;;;;;16.65;10.10;;;6.50;99.90;;;;;;5110741;27;20126;-67
2022/11/12 02:38:42;;;;;;;14.30;9.95;;;6.40;99.90;;;;;;5110230;27;20047;-67
2022/11/12 02:41:07;;;;;;;16.75;9.88;;;6.40;99.90;;;;;;5112769;27;20039;-67
2022/11/12 02:43:33;;;;;;;12.13;9.90;;;6.30;99.90;;;;;;5112304;27;20034;-67
2022/11/12 02:45:58;;;;;;;15.43;10.20;;;6.30;99.90;;;;;;5093831;27;20138;-68
2022/11/12 02:48:24;;;;;;;13.50;9.30;;;6.30;99.90;;;;;;5110879;27;20430;-67
2022/11/12 02:50:50;;;;;;;13.15;9.63;;;6.30;99.90;;;;;;5113306;27;20125;-68
2022/11/12 02:53:15;;;;;;;12.25;9.85;;;6.30;99.90;;;;;;5110108;27;20070;-67
2022/11/12 02:55:42;;;;;;;14.63;10.32;;;6.30;99.90;;;;;;5093006;27;20043;-67
2022/11/12 02:58:07;;;;;;;16.25;10.45;;;6.30;99.90;;;;;;5112767;27;20043;-68
2022/11/12 03:00:33;;;;;;;12.15;8.73;;;6.30;99.90;;;;;;5110468;27;20059;-67
2022/11/12 03:02:59;;;;;;;12.40;9.18;;;6.30;99.90;;;;;;5112952;27;20088;-67
2022/11/12 03:05:26;;;;;;;15.32;9.70;;;6.30;99.90;;;;;;5095049;27;20055;-68
2022/11/12 03:07:59;;;;;;;11.93;8.57;;;6.30;99.90;;;;;;5110689;27;20042;-67
2022/11/12 03:10:26;;;;;;;14.23;8.95;;;6.30;99.90;;;;;;5113351;27;20047;-68
2022/11/12 03:12:53;;;;;;;10.35;7.75;;;6.20;99.90;;;;;;5129023;27;20074;-67
2022/11/12 03:15:19;;;;;;;14.38;8.93;;;6.20;99.90;;;;;;5107550;27;20130;-68
2022/11/12 03:17:44;;;;;;;17.50;9.48;;;6.20;99.90;;;;;;5109657;27;20096;-68
2022/11/12 03:20:10;;;;;;;11.68;9.60;;;6.10;99.90;;;;;;5109045;27;20027;-67
2022/11/12 03:22:37;;;;;;;13.93;8.50;;;6.10;99.90;;;;;;5130862;27;20034;-67
2022/11/12 03:25:03;;;;;;;11.38;8.93;;;6.00;99.90;;;;;;5108480;27;20035;-67
2022/11/12 03:27:30;;;;;;;17.58;10.60;;;6.00;99.90;;;;;;5108879;27;20080;-67
2022/11/12 03:29:56;;;;;;;11.43;9.35;;;6.00;99.90;;;;;;5094704;27;20142;-67
2022/11/12 03:32:21;;;;;;;12.85;9.02;;;5.90;99.90;;;;;;5107969;27;20122;-68
2022/11/12 03:34:47;;;;;;;13.70;9.20;;;6.00;99.90;;;;;;5113049;27;20054;-67
2022/11/12 03:37:12;;;;;;;11.18;7.82;;;6.00;99.90;;;;;;5111312;27;20047;-68
2022/11/12 03:39:38;;;;;;;13.25;8.55;;;5.90;99.90;;;;;;5092323;27;20049;-67
2022/11/12 03:42:04;;;;;;;10.82;8.70;;;6.00;99.90;;;;;;5111196;27;20035;-67
2022/11/12 03:44:30;;;;;;;11.32;8.10;;;6.00;99.90;;;;;;5111944;27;20035;-68
2022/11/12 03:46:55;;;;;;;11.98;8.60;;;6.00;99.90;;;;;;5109983;27;20466;-67
2022/11/12 03:49:21;;;;;;;16.83;9.80;;;5.90;99.90;;;;;;5107008;27;20047;-66
2022/11/12 03:51:46;;;;;;;12.15;9.10;;;5.90;99.90;;;;;;5111536;27;20039;-68
2022/11/12 03:54:12;;;;;;;11.93;8.70;;;5.90;99.90;;;;;;5109700;27;20046;-67
2022/11/12 03:56:38;;;;;;;11.45;8.30;;;5.80;99.90;;;;;;5111800;27;20401;-68
2022/11/12 03:59:04;;;;;;;12.15;8.93;;;5.90;99.90;;;;;;5111372;27;20047;-68
2022/11/12 04:01:30;;;;;;;10.43;8.43;;;5.90;99.90;;;;;;5093797;27;20046;-67
2022/11/12 04:03:56;;;;;;;8.88;7.93;;;5.90;99.90;;;;;;5110711;27;20035;-68
2022/11/12 04:09:06;;;;;;;13.15;9.00;;;5.90;99.90;;;;;;5112155;27;20054;-68
2022/11/12 04:11:31;;;;;;;12.15;9.10;;;5.80;99.90;;;;;;5109709;27;20039;-68
2022/11/12 04:13:57;;;;;;;11.05;8.50;;;5.80;99.90;;;;;;5110182;27;20128;-68
2022/11/12 04:22:02;;;;;;;12.13;8.48;;;5.60;99.90;;;;;;5107346;27;20749;-67
2022/11/12 04:27:15;;;;;;;9.10;7.18;;;5.60;99.90;;;;;;5107354;27;19919;-67
2022/11/12 04:32:28;;;;;;;11.75;8.57;;;5.60;99.90;;;;;;5108155;27;20504;-67
2022/11/12 04:34:53;;;;;;;12.80;7.78;;;5.50;99.90;;;;;;5093852;27;20043;-67
2022/11/12 04:37:19;;;;;;;10.88;7.53;;;5.50;99.90;;;;;;5106891;28;20410;-67
2022/11/12 04:39:45;;;;;;;12.95;8.50;;;5.50;99.90;;;;;;5110204;27;20043;-67
2022/11/12 04:44:59;;;;;;;15.43;9.60;;;5.40;99.90;;;;;;5109808;28;20067;-68
2022/11/12 04:47:27;;;;;;;13.50;9.05;;;5.40;99.90;;;;;;5109062;28;20043;-67
2022/11/12 04:49:52;;;;;;;10.93;8.20;;;5.40;99.90;;;;;;5110222;28;20435;-68
2022/11/12 04:52:18;;;;;;;12.30;9.63;;;5.40;99.90;;;;;;5108786;28;20142;-68
2022/11/12 04:54:44;;;;;;;14.27;9.65;;;5.40;99.90;;;;;;5108120;28;20375;-67
2022/11/12 04:57:09;;;;;;;11.50;9.07;;;5.40;99.90;;;;;;5110253;28;20047;-68
2022/11/12 04:59:35;;;;;;;13.38;8.70;;;5.40;99.90;;;;;;5108866;28;20031;-67
2022/11/12 05:02:00;;;;;;;11.82;9.23;;;5.40;99.90;;;;;;5110975;28;20707;-67
2022/11/12 05:04:27;;;;;;;13.43;9.88;;;5.40;99.90;;;;;;5110946;27;20128;-67
2022/11/12 05:06:54;;;;;;;13.32;10.05;;;5.40;99.90;;;;;;5109460;28;20819;-68
2022/11/12 05:09:23;;;;;;;13.27;9.05;;;5.40;99.90;;;;;;5105528;28;20502;-67
2022/11/12 05:11:48;;;;;;;10.32;8.48;;;5.40;99.90;;;;;;5109836;28;20054;-67
2022/11/12 05:14:14;;;;;;;12.75;8.65;;;5.40;99.90;;;;;;5106832;28;20489;-67
2022/11/12 05:16:40;;;;;;;10.52;8.45;;;5.40;99.90;;;;;;5110500;27;20027;-68
2022/11/12 05:19:06;;;;;;;11.27;8.65;;;5.40;99.90;;;;;;5110134;28;20031;-68
2022/11/12 05:24:15;;;;;;;8.55;6.95;;;5.50;99.90;;;;;;5104584;28;20044;-68
2022/11/12 05:26:41;;;;;;;11.68;8.15;;;5.40;99.90;;;;;;5126570;28;20049;-67
2022/11/12 05:29:07;;;;;;;12.38;8.35;;;5.40;99.90;;;;;;5090308;28;20055;-67
2022/11/12 05:31:33;;;;;;;11.70;8.35;;;5.30;99.90;;;;;;5107539;28;20066;-67
2022/11/12 05:33:59;;;;;;;11.63;8.23;;;5.30;99.90;;;;;;5112126;28;20450;-68
2022/11/12 05:36:25;;;;;;;10.93;8.05;;;5.30;99.90;;;;;;5110390;28;20071;-66
2022/11/12 05:38:50;;;;;;;12.27;7.35;;;5.30;99.90;;;;;;5109164;28;20120;-67
2022/11/12 05:41:17;;;;;;;11.65;8.18;;;5.30;99.90;;;;;;5106970;28;20048;-67
2022/11/12 05:43:42;;;;;;;9.70;7.63;;;5.20;99.90;;;;;;5107905;27;20043;-68
2022/11/12 05:46:08;;;;;;;8.10;7.10;;;5.20;99.90;;;;;;5109944;28;20042;-67
2022/11/12 05:48:34;;;;;;;8.63;7.40;;;5.20;99.90;;;;;;5110220;28;20121;-68
2022/11/12 05:50:59;;;;;;;11.68;9.02;;;5.20;99.90;;;;;;5108005;28;20042;-67
2022/11/12 05:53:25;;;;;;;10.65;7.85;;;5.20;99.90;;;;;;5092553;28;20051;-68
2022/11/12 05:55:51;;;;;;;11.38;8.45;;;5.10;99.90;;;;;;5109693;27;20079;-69
2022/11/12 05:58:17;;;;;;;14.77;8.35;;;5.10;99.90;;;;;;5113659;27;20051;-68
2022/11/12 06:00:43;;;;;;;13.27;9.63;;;5.10;99.90;;;;;;5095524;27;20043;-67
2022/11/12 06:03:10;;;;;;;12.05;8.60;;;5.10;99.90;;;;;;5114569;27;20554;-68
2022/11/12 06:05:36;;;;;;;13.68;9.57;;;5.10;99.90;;;;;;5114461;27;20169;-67
2022/11/12 06:08:04;;;;;;;10.70;8.38;;;5.10;99.90;;;;;;5097400;27;20083;-69
2022/11/12 06:10:33;;;;;;;12.05;9.02;;;5.10;99.90;;;;;;5113288;27;20080;-68
2022/11/12 06:12:59;;;;;;;9.27;7.47;;;5.20;99.90;;;;;;5112400;27;20088;-67
2022/11/12 06:15:25;;;;;;;10.73;8.02;;;5.20;99.90;;;;;;5113518;27;20039;-67
2022/11/12 06:17:54;;;;;;;9.57;7.85;;;5.20;99.90;;;;;;5096476;27;20118;-67
2022/11/12 06:20:21;;;;;;;9.68;7.30;;;5.20;99.90;;;;;;5113290;27;20482;-68
2022/11/12 06:22:47;;;;;;;9.00;6.90;;;5.20;99.90;;;;;;5107288;27;20131;-69
2022/11/12 06:25:13;;;;;;;8.82;7.03;;;5.20;99.90;;;;;;5109959;27;20110;-68
2022/11/12 06:27:39;;;;;;;10.20;7.55;;;5.10;99.90;;;;;;5108920;27;20034;-66
2022/11/12 06:30:06;;;;;;;10.32;7.22;;;5.10;99.90;;;;;;5114435;27;20039;-68
2022/11/12 06:32:32;;;;;;;10.05;6.82;;;5.10;99.90;;;;;;5114697;27;20142;-68
2022/11/12 06:34:57;;;;;;;10.23;7.53;;;5.00;99.90;;;;;;5112682;27;20418;-68
2022/11/12 06:37:23;;;;;;;10.70;7.10;;;5.10;99.90;;;;;;5108855;28;20052;-68
2022/11/12 06:39:49;;;;;;;11.88;7.25;;;5.00;99.90;;;;;;5111186;28;20036;-67
2022/11/12 06:42:14;;;;;;;10.02;6.82;;;5.00;99.90;;;;;;5111056;28;20106;-67
2022/11/12 06:44:40;;;;;;;7.78;6.20;;;5.00;99.90;;;;;;5110058;28;20545;-68
2022/11/12 06:47:06;;;;;;;7.72;5.75;;;4.90;99.90;;;;;;5108396;28;20088;-69
2022/11/12 06:49:32;;;;;;;7.53;5.70;;;4.80;99.90;;;;;;5111235;28;20047;-68
2022/11/12 06:51:57;;;;;;;6.65;5.90;;;4.70;99.90;;;;;;5107558;28;20040;-68
2022/11/12 06:54:23;;;;;;;7.70;5.47;;;4.70;99.90;;;;;;5112060;28;20046;-67
2022/11/12 06:56:48;;;;;;;6.25;5.32;;;4.70;99.90;;;;;;5105844;28;20379;-68
2022/11/12 06:59:15;;;;;;;10.40;6.13;;;4.60;99.90;;;;;;5108637;28;20031;-68
2022/11/12 07:01:40;;;;;;;11.38;7.05;;;4.50;99.90;;;;;;5105270;28;20118;-68
2022/11/12 07:04:06;;;;;;;9.90;6.68;;;4.50;99.90;;;;;;5110039;28;20184;-69
2022/11/12 07:06:33;;;;;;;10.73;7.50;;;4.40;99.90;;;;;;5090004;28;20104;-69
2022/11/12 07:08:59;;;;;;;9.73;7.10;;;4.40;99.90;;;;;;5110642;28;20040;-68
2022/11/12 07:11:24;;;;;;;6.63;5.43;;;4.40;99.90;;;;;;5107434;28;20091;-69
2022/11/12 07:13:50;;;;;;;8.27;6.25;;;4.50;99.90;;;;;;5109744;28;20044;-69
2022/11/12 07:16:17;;;;;;;8.02;5.35;;;4.50;99.90;;;;;;5109031;28;20509;-69
2022/11/12 07:18:44;;;;;;;7.28;5.45;;;4.50;99.90;;;;;;5101614;28;20506;-68
2022/11/12 07:21:12;;;;;;;11.65;6.28;;;4.40;99.90;;;;;;5107709;28;20497;-68
2022/11/12 07:23:38;;;;;;;7.68;5.93;;;4.40;99.90;;;;;;5108928;28;20039;-68
2022/11/12 07:26:13;;;;;;;9.93;5.97;;;4.30;99.90;;;;;;5108270;28;20057;-69
2022/11/12 07:28:39;;;;;;;9.50;6.20;;;4.30;99.90;;;;;;5105828;28;20379;-69
2022/11/12 07:31:08;;;;;;;10.60;6.63;;;4.30;99.90;;;;;;5108702;28;20044;-69
2022/11/12 07:33:34;;;;;;;12.55;6.75;;;4.30;99.90;;;;;;5108968;28;20028;-68
2022/11/12 07:36:02;;;;;;;17.40;8.13;;;4.30;99.90;;;;;;5109730;28;20046;-68
2022/11/12 07:38:29;;;;;;;19.23;8.35;;;4.40;99.90;;;;;;5083092;28;20052;-69
2022/11/12 07:41:13;;;;;;;14.88;8.93;;;4.40;99.90;;;;;;5108316;28;20127;-67
2022/11/12 07:43:40;;;;;;;12.35;8.35;;;4.40;99.90;;;;;;5090308;28;20081;-69
2022/11/12 07:46:11;;;;;;;9.55;8.23;;;4.50;99.90;;;;;;5109327;28;20435;-68
2022/11/12 07:48:37;;;;;;;12.07;8.23;;;4.50;99.90;;;;;;5093008;28;20031;-68
2022/11/12 07:51:05;;;;;;;13.02;8.50;;;4.50;99.90;;;;;;5109863;28;20461;-69
2022/11/12 07:53:31;;;;;;;11.80;7.20;;;4.60;99.90;;;;;;5103958;28;20043;-68
2022/11/12 07:55:59;;;;;;;7.25;6.30;;;4.60;99.90;;;;;;5109400;28;20101;-68
2022/11/12 07:58:25;;;;;;;8.07;6.57;;;4.70;99.90;;;;;;5090719;28;20509;-70
2022/11/12 08:00:52;;;;;;;8.43;6.68;;;4.80;99.90;;;;;;5109513;28;20035;-68
2022/11/12 08:03:18;;;;;;;13.05;7.18;;;4.80;99.90;;;;;;5108330;28;20042;-69
2022/11/12 08:05:44;;;;;;;6.45;5.78;;;4.80;99.90;;;;;;5088639;28;20070;-68
2022/11/12 08:08:10;;;;;;;8.93;7.00;;;4.90;99.90;;;;;;5105361;28;20035;-68
2022/11/12 08:10:36;;;;;;;10.13;7.82;;;5.00;99.90;;;;;;5107924;28;20036;-68
2022/11/12 08:13:02;;;;;;;10.13;7.88;;;5.10;99.90;;;;;;5108693;28;20069;-68
2022/11/12 08:15:27;;;;;;;8.82;7.82;;;5.10;99.90;;;;;;5102452;28;20428;-69
2022/11/12 08:17:53;;;;;;;9.80;8.23;;;5.10;99.90;;;;;;5108172;28;20058;-68
2022/11/12 08:20:18;;;;;;;11.30;9.00;;;5.20;99.90;;;;;;5109314;28;20040;-69
2022/11/12 08:22:44;;;;;;;9.05;7.50;;;5.20;99.90;;;;;;5109487;28;20363;-68
2022/11/12 08:25:10;;;;;;;12.23;9.60;;;5.30;99.90;;;;;;5100786;28;20031;-68
2022/11/12 08:27:35;;;;;;;10.27;8.10;;;5.40;99.90;;;;;;5106770;28;20082;-68
2022/11/12 08:30:02;;;;;;;8.05;6.93;;;5.50;99.90;;;;;;5101844;28;20032;-69
2022/11/12 08:32:28;;;;;;;7.80;6.95;;;5.60;99.90;;;;;;5108232;28;20509;-68
2022/11/12 08:34:53;;;;;;;8.32;7.10;;;5.70;99.90;;;;;;5106714;28;20044;-68
2022/11/12 08:37:19;;;;;;;7.90;6.82;;;5.80;99.90;;;;;;5106185;28;20055;-68
2022/11/12 08:39:44;;;;;;;7.75;6.47;;;5.90;99.90;;;;;;5106996;28;20046;-68
2022/11/12 08:42:10;;;;;;;7.53;5.97;;;6.00;99.90;;;;;;5108203;28;20493;-70
2022/11/12 08:44:36;;;;;;;8.48;6.65;;;6.20;99.90;;;;;;5107846;28;20047;-70
2022/11/12 08:47:01;;;;;;;10.35;6.95;;;6.20;99.90;;;;;;5100642;28;20046;-69
2022/11/12 08:49:28;;;;;;;9.15;7.10;;;6.40;99.90;;;;;;5104635;28;20044;-69
2022/11/12 08:51:54;;;;;;;9.65;7.80;;;6.50;99.90;;;;;;5108386;28;20111;-70
2022/11/12 08:54:19;;;;;;;9.52;8.20;;;6.60;99.90;;;;;;5091472;28;20114;-69
2022/11/12 08:56:45;;;;;;;10.43;7.65;;;6.80;99.90;;;;;;5103644;28;20043;-68
2022/11/12 08:59:11;;;;;;;8.50;7.50;;;7.00;99.90;;;;;;5107446;28;20100;-68
2022/11/12 09:01:36;;;;;;;12.57;8.40;;;7.10;99.90;;;;;;5106557;28;20047;-68
2022/11/12 09:04:02;;;;;;;15.07;8.68;;;7.30;99.90;;;;;;5101121;28;20052;-70
2022/11/12 09:06:27;;;;;;;13.25;9.30;;;7.40;99.90;;;;;;5104557;28;20050;-69
2022/11/12 09:08:53;;;;;;;11.32;7.97;;;7.60;99.90;;;;;;5100901;28;20046;-70
2022/11/12 09:11:19;;;;;;;13.90;9.43;;;7.80;99.90;;;;;;5107375;28;20039;-68
2022/11/12 09:13:44;;;;;;;10.98;8.00;;;7.90;99.90;;;;;;5108620;28;20409;-69
2022/11/12 09:16:10;;;;;;;9.68;8.07;;;8.10;99.90;;;;;;5106135;28;20051;-69
2022/11/12 09:18:36;;;;;;;10.88;8.15;;;8.30;99.90;;;;;;5107332;28;20109;-68
2022/11/12 09:21:10;;;;;;;10.90;8.30;;;8.50;99.90;;;;;;5090173;28;20042;-70
2022/11/12 09:23:36;;;;;;;9.20;7.82;;;8.70;99.90;;;;;;5108610;28;20044;-68
2022/11/12 09:26:03;;;;;;;9.02;8.13;;;8.90;99.90;;;;;;5091303;28;20035;-70
2022/11/12 09:28:29;;;;;;;9.63;8.20;;;9.20;99.90;;;;;;5100758;28;20487;-69
2022/11/12 09:30:55;;;;;;;11.43;9.10;;;9.40;99.90;;;;;;5111659;28;20085;-70
2022/11/12 09:33:26;;;;;;;9.68;8.13;;;9.60;99.90;;;;;;5110767;28;20078;-68
2022/11/12 09:35:52;;;;;;;10.50;7.57;;;9.80;99.90;;;;;;5111977;28;20047;-69
2022/11/12 09:38:18;;;;;;;10.20;8.15;;;10.00;99.90;;;;;;5111119;28;20044;-68
2022/11/12 09:40:50;;;;;;;9.63;7.90;;;10.20;99.90;;;;;;5110086;28;20126;-68
2022/11/12 09:43:19;;;;;;;17.35;8.20;;;10.30;99.90;;;;;;5088296;28;20055;-70
2022/11/12 09:45:46;;;;;;;11.43;8.07;;;10.50;99.90;;;;;;5105179;28;20050;-69
2022/11/12 09:48:16;;;;;;;13.07;9.30;;;10.70;99.90;;;;;;5109238;28;20114;-68
2022/11/12 09:50:52;;;;;;;11.15;8.80;;;10.90;99.90;;;;;;5093001;28;20512;-68
2022/11/12 09:53:25;;;;;;;10.80;8.02;;;11.20;99.90;;;;;;5111618;28;20111;-69
2022/11/12 09:55:51;;;;;;;12.40;7.63;;;11.50;99.90;;;;;;5109572;28;20039;-70
2022/11/12 09:58:18;;;;;;;10.15;7.60;;;11.80;99.90;;;;;;5109286;28;20449;-70
2022/11/12 10:01:12;;;;;;;10.63;7.93;;;11.90;99.90;;;;;;5109937;28;20036;-69
2022/11/12 10:04:15;;;;;;;9.02;7.30;;;12.00;99.90;;;;;;5105156;28;20067;-70
2022/11/12 10:07:11;;;;;;;8.75;7.18;;;12.20;99.90;;;;;;5091203;28;20074;-71
2022/11/12 10:09:56;;;;;;;10.57;7.88;;;12.60;99.90;;;;;;5111788;28;20039;-71
2022/11/12 10:12:32;;;;;;;8.60;6.93;;;12.70;99.90;;;;;;5106357;28;20525;-70
2022/11/12 10:18:13;;;;;;;10.57;7.00;;;13.00;99.90;;;;;;5109418;28;20123;-68
2022/11/12 10:21:11;;;;;;;9.10;7.28;;;13.00;99.90;;;;;;5106399;28;20128;-70
2022/11/12 10:23:41;;;;;;;11.38;7.20;;;13.10;99.90;;;;;;5111605;28;20047;-69
2022/11/12 10:26:13;;;;;;;8.10;6.65;;;13.20;99.90;;;;;;5094344;28;20054;-69
2022/11/12 10:29:26;;;;;;;11.35;7.25;;;13.40;99.90;;;;;;5110191;28;20372;-69
2022/11/12 10:31:52;;;;;;;10.40;6.85;;;13.50;99.90;;;;;;5049318;28;20500;-70
2022/11/12 10:34:23;;;;;;;9.43;7.18;;;13.70;99.90;;;;;;5069417;28;20041;-68
2022/11/12 10:37:00;;;;;;;8.95;7.32;;;13.90;99.90;;;;;;5035588;28;20502;-69
2022/11/12 10:39:41;;;;;;;7.88;6.50;;;14.10;99.90;;;;;;5052684;28;20057;-69
2022/11/12 10:42:10;;;;;;;8.88;6.70;;;14.30;99.90;;;;;;5068015;28;20083;-70
2022/11/12 10:44:37;;;;;;;11.65;6.70;;;14.40;99.90;;;;;;5052097;28;20550;-70
2022/11/12 10:47:22;;;;;;;8.65;6.55;;;14.50;99.90;;;;;;5049617;28;20066;-68
2022/11/12 10:50:07;;;;;;;13.45;7.22;;;14.60;99.90;;;;;;5069052;28;20045;-69
2022/11/12 10:52:33;;;;;;;10.10;6.97;;;14.60;99.90;;;;;;5051168;28;20044;-69
2022/11/12 10:55:17;;;;;;;8.45;7.00;;;14.70;99.90;;;;;;5065460;28;20048;-69
2022/11/12 10:57:43;;;;;;;9.45;6.60;;;14.70;99.90;;;;;;5052657;28;20051;-70
2022/11/12 11:00:11;;;;;;;8.73;6.60;;;14.60;99.90;;;;;;5052051;28;20499;-69
2022/11/12 11:02:50;;;;;;;7.85;6.60;;;14.70;99.90;;;;;;5051643;28;20121;-70
2022/11/12 11:05:44;;;;;;;8.82;6.60;;;14.70;99.90;;;;;;5069198;28;20537;-70
2022/11/12 11:08:10;;;;;;;8.70;6.93;;;14.70;99.90;;;;;;5046941;28;20044;-70
2022/11/12 11:10:35;;;;;;;9.98;7.50;;;14.60;99.90;;;;;;5089014;28;20052;-68
2022/11/12 11:13:27;;;;;;;13.25;7.57;;;14.50;99.90;;;;;;5070883;28;20071;-69
2022/11/12 11:15:58;;;;;;;8.13;6.03;;;14.60;99.90;;;;;;5087491;28;20102;-70
2022/11/12 11:18:24;;;;;;;9.00;6.25;;;14.50;99.90;;;;;;5070510;28;20044;-68
2022/11/12 11:21:19;;;;;;;7.45;6.25;;;14.40;99.90;;;;;;5099425;28;20043;-69
2022/11/12 11:23:55;;;;;;;10.90;8.07;;;14.20;99.90;;;;;;5089243;28;20040;-69
2022/11/12 11:26:27;;;;;;;7.30;6.35;;;14.10;99.90;;;;;;5107246;28;20055;-69
2022/11/12 11:29:25;;;;;;;10.33;7.00;;;14.10;99.90;;;;;;5102653;28;20097;-69
2022/11/12 11:32:06;;;;;;;8.90;6.68;;;14.00;99.90;;;;;;5063444;28;20066;-68
2022/11/12 11:34:36;;;;;;;8.10;7.28;;;13.90;99.90;;;;;;5093916;28;20051;-68
2022/11/12 11:37:20;;;;;;;11.50;7.05;;;13.90;99.90;;;;;;5106319;27;20089;-70
2022/11/12 11:40:05;;;;;;;8.40;6.97;;;13.70;99.90;;;;;;5111819;27;20047;-70
2022/11/12 11:43:09;;;;;;;11.68;7.40;;;13.60;99.90;;;;;;5113623;27;20050;-69
2022/11/12 11:45:48;;;;;;;9.23;6.80;;;13.40;99.90;;;;;;5009263;28;20072;-68
2022/11/12 11:48:14;;;;;;;10.13;7.85;;;13.50;99.90;;;;;;5009166;28;20053;-68
2022/11/12 11:50:57;;;;;;;10.23;7.55;;;13.50;99.90;;;;;;5005712;28;20049;-69
2022/11/12 11:53:34;;;;;;;10.43;7.80;;;13.70;99.90;;;;;;5008650;28;20050;-70
2022/11/12 11:56:11;;;;;;;9.00;7.40;;;13.90;99.90;;;;;;5008907;28;20045;-69
2022/11/12 11:58:58;;;;;;;9.13;7.38;;;14.20;99.90;;;;;;5006426;28;20053;-68
2022/11/12 12:01:59;;;;;;;8.60;7.38;;;14.50;99.90;;;;;;5008680;28;20096;-69
2022/11/12 12:04:47;;;;;;;10.32;7.38;;;14.40;99.90;;;;;;5010799;28;20108;-69
2022/11/12 12:07:20;;;;;;;10.85;7.57;;;14.60;99.90;;;;;;5010011;28;20512;-69
2022/11/12 12:09:46;;;;;;;11.27;7.47;;;14.90;99.90;;;;;;5009805;28;20041;-69
2022/11/12 12:12:20;;;;;;;13.18;7.00;;;14.70;99.90;;;;;;5009314;28;20060;-68
2022/11/12 12:14:51;;;;;;;8.15;6.65;;;14.70;99.90;;;;;;4994871;28;20049;-69
2022/11/12 12:17:44;;;;;;;9.77;6.32;;;14.80;99.90;;;;;;5009292;28;20132;-68
2022/11/12 12:20:39;;;;;;;7.88;6.70;;;14.70;99.90;;;;;;5003279;27;20049;-68
2022/11/12 12:23:48;;;;;;;8.95;7.13;;;14.70;99.90;;;;;;5089420;27;20101;-69
2022/11/12 12:26:20;;;;;;;10.15;6.25;;;14.50;99.90;;;;;;5099086;27;20058;-70
2022/11/12 12:29:15;;;;;;;22.10;12.57;;;14.60;99.90;;;;;;5107707;27;20443;-70
2022/11/12 12:31:47;;;;;;;10.38;7.50;;;14.50;99.90;;;;;;5112339;27;20046;-68
2022/11/12 12:34:30;;;;;;;11.63;8.48;;;14.30;99.90;;;;;;5112439;27;20038;-70
2022/11/12 12:37:06;;;;;;;8.43;6.72;;;14.20;99.90;;;;;;5112727;27;20058;-69
2022/11/12 12:39:45;;;;;;;8.38;6.30;;;14.20;99.90;;;;;;5075645;28;20052;-69
2022/11/12 12:42:36;;;;;;;6.68;5.97;;;14.30;99.90;;;;;;5095385;28;20493;-69
2022/11/12 12:45:30;;;;;;;8.82;6.30;;;14.30;99.90;;;;;;5110548;28;20047;-68
2022/11/12 12:47:58;;;;;;;7.47;6.05;;;14.50;99.90;;;;;;5100847;28;20074;-68
2022/11/12 12:50:25;;;;;;;7.10;5.78;;;14.50;99.90;;;;;;5112757;28;20050;-70
2022/11/12 12:53:04;;;;;;;7.13;5.50;;;14.60;99.90;;;;;;5112656;28;20493;-68
2022/11/12 12:55:42;;;;;;;8.18;6.15;;;14.70;99.90;;;;;;5112399;28;20039;-69
2022/11/12 12:58:19;;;;;;;9.48;6.07;;;14.60;99.90;;;;;;5127944;27;20038;-70
2022/11/12 13:00:53;;;;;;;7.97;6.30;;;14.40;99.90;;;;;;5112727;28;20439;-70
2022/11/12 13:03:56;;;;;;;7.15;5.70;;;14.40;99.90;;;;;;5112865;27;20114;-70
2022/11/12 13:06:22;;;;;;;7.43;5.90;;;14.80;99.90;;;;;;5116625;27;20177;-70
2022/11/12 13:09:05;;;;;;;9.23;6.97;;;15.00;99.90;;;;;;5116452;27;20118;-69
2022/11/12 13:12:24;;;;;;;7.20;6.18;;;15.30;99.90;;;;;;5117075;27;20610;-70
2022/11/12 13:14:34;;;;;;;7.25;6.35;;;15.60;99.90;;;;;;5106663;27;20462;-69
2022/11/12 13:17:07;;;;;;;6.75;5.78;;;15.50;99.90;;;;;;5116851;27;20488;-70
2022/11/12 13:19:36;;;;;;;8.38;5.75;;;16.50;99.90;;;;;;5117372;27;20061;-69
2022/11/12 13:22:17;;;;;;;7.18;5.63;;;17.10;99.90;;;;;;5099529;27;20491;-70